sensor_id;sensor_type;location;lat;lon;timestamp;P1;durP1;ratioP1;P2;durP2;ratioP2
49310;SDS011;35177;45.900;5.946;2023-04-24T00:00:13;0.50;;;0.50;;
49310;SDS011;35177;45.900;5.946;2023-04-24T00:02:39;1.70;;;0.60;;
49310;SDS011;35177;45.900;5.946;2023-04-24T00:05:05;1.60;;;1.08;;
49310;SDS011;35177;45.900;5.946;2023-04-24T00:07:31;1.92;;;1.00;;
49310;SDS011;35177;45.900;5.946;2023-04-24T00:09:56;1.55;;;0.90;;
49310;SDS011;35177;45.900;5.946;2023-04-24T00:12:21;2.47;;;0.80;;
49310;SDS011;35177;45.900;5.946;2023-04-24T00:14:47;0.98;;;0.85;;
49310;SDS011;35177;45.900;5.946;2023-04-24T00:17:12;1.80;;;0.73;;
49310;SDS011;35177;45.900;5.946;2023-04-24T00:19:38;1.08;;;0.82;;
49310;SDS011;35177;45.900;5.946;2023-04-24T00:22:03;3.45;;;0.90;;
49310;SDS011;35177;45.900;5.946;2023-04-24T00:24:28;1.05;;;0.80;;
49310;SDS011;35177;45.900;5.946;2023-04-24T00:26:53;1.27;;;1.17;;
49310;SDS011;35177;45.900;5.946;2023-04-24T00:29:19;2.58;;;0.63;;
49310;SDS011;35177;45.900;5.946;2023-04-24T00:31:44;1.77;;;0.80;;
49310;SDS011;35177;45.900;5.946;2023-04-24T00:34:10;5.60;;;0.80;;
49310;SDS011;35177;45.900;5.946;2023-04-24T00:36:36;2.50;;;1.20;;
49310;SDS011;35177;45.900;5.946;2023-04-24T00:39:02;1.10;;;0.70;;
49310;SDS011;35177;45.900;5.946;2023-04-24T00:41:27;1.40;;;0.60;;
49310;SDS011;35177;45.900;5.946;2023-04-24T00:43:52;1.98;;;0.70;;
49310;SDS011;35177;45.900;5.946;2023-04-24T00:46:18;1.13;;;0.85;;
49310;SDS011;35177;45.900;5.946;2023-04-24T00:48:43;1.85;;;0.80;;
49310;SDS011;35177;45.900;5.946;2023-04-24T00:51:09;1.38;;;0.73;;
49310;SDS011;35177;45.900;5.946;2023-04-24T00:53:35;1.48;;;0.80;;
49310;SDS011;35177;45.900;5.946;2023-04-24T00:56:00;1.17;;;0.80;;
49310;SDS011;35177;45.900;5.946;2023-04-24T00:58:26;1.45;;;0.75;;
49310;SDS011;35177;45.900;5.946;2023-04-24T01:00:51;1.10;;;0.90;;
49310;SDS011;35177;45.900;5.946;2023-04-24T01:03:19;1.17;;;0.73;;
49310;SDS011;35177;45.900;5.946;2023-04-24T01:05:44;1.02;;;0.90;;
49310;SDS011;35177;45.900;5.946;2023-04-24T01:08:10;1.20;;;0.93;;
49310;SDS011;35177;45.900;5.946;2023-04-24T01:10:35;1.77;;;0.75;;
49310;SDS011;35177;45.900;5.946;2023-04-24T01:13:01;1.42;;;0.70;;
49310;SDS011;35177;45.900;5.946;2023-04-24T01:15:26;1.90;;;0.80;;
49310;SDS011;35177;45.900;5.946;2023-04-24T01:17:52;3.00;;;0.90;;
49310;SDS011;35177;45.900;5.946;2023-04-24T01:20:17;1.05;;;0.70;;
49310;SDS011;35177;45.900;5.946;2023-04-24T01:22:43;2.95;;;0.70;;
49310;SDS011;35177;45.900;5.946;2023-04-24T01:25:08;1.90;;;1.38;;
49310;SDS011;35177;45.900;5.946;2023-04-24T01:27:33;1.90;;;1.05;;
49310;SDS011;35177;45.900;5.946;2023-04-24T01:29:59;1.85;;;1.00;;
49310;SDS011;35177;45.900;5.946;2023-04-24T01:32:24;1.48;;;0.70;;
49310;SDS011;35177;45.900;5.946;2023-04-24T01:34:50;1.02;;;0.90;;
49310;SDS011;35177;45.900;5.946;2023-04-24T01:37:16;1.98;;;0.80;;
49310;SDS011;35177;45.900;5.946;2023-04-24T01:39:42;1.10;;;0.68;;
49310;SDS011;35177;45.900;5.946;2023-04-24T01:42:07;0.60;;;0.60;;
49310;SDS011;35177;45.900;5.946;2023-04-24T01:44:33;0.93;;;0.60;;
49310;SDS011;35177;45.900;5.946;2023-04-24T01:47:00;1.73;;;0.77;;
49310;SDS011;35177;45.900;5.946;2023-04-24T01:49:25;1.67;;;0.65;;
49310;SDS011;35177;45.900;5.946;2023-04-24T01:51:51;1.55;;;0.75;;
49310;SDS011;35177;45.900;5.946;2023-04-24T01:54:16;1.08;;;0.70;;
49310;SDS011;35177;45.900;5.946;2023-04-24T01:56:42;0.77;;;0.70;;
49310;SDS011;35177;45.900;5.946;2023-04-24T01:59:09;3.08;;;0.70;;
49310;SDS011;35177;45.900;5.946;2023-04-24T02:01:34;0.70;;;0.60;;
49310;SDS011;35177;45.900;5.946;2023-04-24T02:04:04;3.88;;;1.13;;
49310;SDS011;35177;45.900;5.946;2023-04-24T02:06:29;0.93;;;0.50;;
49310;SDS011;35177;45.900;5.946;2023-04-24T02:08:56;1.20;;;0.80;;
49310;SDS011;35177;45.900;5.946;2023-04-24T02:11:21;2.15;;;0.80;;
49310;SDS011;35177;45.900;5.946;2023-04-24T02:13:47;1.88;;;0.80;;
49310;SDS011;35177;45.900;5.946;2023-04-24T02:16:12;1.60;;;0.75;;
49310;SDS011;35177;45.900;5.946;2023-04-24T02:18:37;2.33;;;1.20;;
49310;SDS011;35177;45.900;5.946;2023-04-24T02:21:03;3.47;;;0.80;;
49310;SDS011;35177;45.900;5.946;2023-04-24T02:23:28;1.52;;;0.70;;
49310;SDS011;35177;45.900;5.946;2023-04-24T02:25:53;1.92;;;0.70;;
49310;SDS011;35177;45.900;5.946;2023-04-24T02:28:19;1.48;;;0.60;;
49310;SDS011;35177;45.900;5.946;2023-04-24T02:30:44;4.13;;;1.58;;
49310;SDS011;35177;45.900;5.946;2023-04-24T02:33:10;1.38;;;0.60;;
49310;SDS011;35177;45.900;5.946;2023-04-24T02:35:36;1.85;;;0.90;;
49310;SDS011;35177;45.900;5.946;2023-04-24T02:38:01;1.40;;;0.98;;
49310;SDS011;35177;45.900;5.946;2023-04-24T02:40:26;1.88;;;0.85;;
49310;SDS011;35177;45.900;5.946;2023-04-24T02:42:52;1.73;;;1.00;;
49310;SDS011;35177;45.900;5.946;2023-04-24T02:45:17;1.95;;;0.90;;
49310;SDS011;35177;45.900;5.946;2023-04-24T02:47:42;5.00;;;1.27;;
49310;SDS011;35177;45.900;5.946;2023-04-24T02:50:08;2.88;;;1.10;;
49310;SDS011;35177;45.900;5.946;2023-04-24T02:52:34;6.63;;;1.20;;
49310;SDS011;35177;45.900;5.946;2023-04-24T02:54:59;4.28;;;1.38;;
49310;SDS011;35177;45.900;5.946;2023-04-24T02:57:25;2.05;;;1.23;;
49310;SDS011;35177;45.900;5.946;2023-04-24T02:59:50;1.75;;;1.40;;
49310;SDS011;35177;45.900;5.946;2023-04-24T03:02:15;2.88;;;1.17;;
49310;SDS011;35177;45.900;5.946;2023-04-24T03:04:40;3.72;;;2.15;;
49310;SDS011;35177;45.900;5.946;2023-04-24T03:07:07;2.35;;;1.10;;
49310;SDS011;35177;45.900;5.946;2023-04-24T03:09:33;1.45;;;1.25;;
49310;SDS011;35177;45.900;5.946;2023-04-24T03:11:58;2.65;;;1.30;;
49310;SDS011;35177;45.900;5.946;2023-04-24T03:14:23;2.55;;;1.23;;
49310;SDS011;35177;45.900;5.946;2023-04-24T03:16:49;2.85;;;0.90;;
49310;SDS011;35177;45.900;5.946;2023-04-24T03:19:15;2.83;;;1.02;;
49310;SDS011;35177;45.900;5.946;2023-04-24T03:21:40;1.80;;;0.98;;
49310;SDS011;35177;45.900;5.946;2023-04-24T03:24:07;1.98;;;1.08;;
49310;SDS011;35177;45.900;5.946;2023-04-24T03:26:32;1.50;;;0.73;;
49310;SDS011;35177;45.900;5.946;2023-04-24T03:28:57;2.30;;;0.90;;
49310;SDS011;35177;45.900;5.946;2023-04-24T03:31:22;1.35;;;0.70;;
49310;SDS011;35177;45.900;5.946;2023-04-24T03:33:48;1.58;;;0.88;;
49310;SDS011;35177;45.900;5.946;2023-04-24T03:36:13;4.15;;;0.80;;
49310;SDS011;35177;45.900;5.946;2023-04-24T03:38:39;4.43;;;0.80;;
49310;SDS011;35177;45.900;5.946;2023-04-24T03:41:04;1.88;;;1.08;;
49310;SDS011;35177;45.900;5.946;2023-04-24T03:43:29;1.52;;;0.77;;
49310;SDS011;35177;45.900;5.946;2023-04-24T03:45:54;3.80;;;1.13;;
49310;SDS011;35177;45.900;5.946;2023-04-24T03:48:20;3.63;;;1.00;;
49310;SDS011;35177;45.900;5.946;2023-04-24T03:50:45;3.33;;;1.50;;
49310;SDS011;35177;45.900;5.946;2023-04-24T03:53:10;3.85;;;1.38;;
49310;SDS011;35177;45.900;5.946;2023-04-24T03:55:36;5.22;;;2.10;;
49310;SDS011;35177;45.900;5.946;2023-04-24T03:58:01;2.10;;;1.42;;
49310;SDS011;35177;45.900;5.946;2023-04-24T04:00:26;1.83;;;1.50;;
49310;SDS011;35177;45.900;5.946;2023-04-24T04:02:52;4.00;;;1.70;;
49310;SDS011;35177;45.900;5.946;2023-04-24T04:05:17;5.60;;;1.70;;
49310;SDS011;35177;45.900;5.946;2023-04-24T04:07:43;2.63;;;1.83;;
49310;SDS011;35177;45.900;5.946;2023-04-24T04:10:08;3.85;;;1.85;;
49310;SDS011;35177;45.900;5.946;2023-04-24T04:12:33;3.85;;;1.88;;
49310;SDS011;35177;45.900;5.946;2023-04-24T04:14:59;6.18;;;1.90;;
49310;SDS011;35177;45.900;5.946;2023-04-24T04:17:24;2.63;;;1.80;;
49310;SDS011;35177;45.900;5.946;2023-04-24T04:19:49;3.70;;;2.10;;
49310;SDS011;35177;45.900;5.946;2023-04-24T04:22:15;3.78;;;1.85;;
49310;SDS011;35177;45.900;5.946;2023-04-24T04:24:40;3.20;;;1.60;;
49310;SDS011;35177;45.900;5.946;2023-04-24T04:27:06;3.78;;;1.80;;
49310;SDS011;35177;45.900;5.946;2023-04-24T04:29:31;2.80;;;1.80;;
49310;SDS011;35177;45.900;5.946;2023-04-24T04:31:57;4.93;;;1.95;;
49310;SDS011;35177;45.900;5.946;2023-04-24T04:34:23;3.20;;;1.85;;
49310;SDS011;35177;45.900;5.946;2023-04-24T04:36:48;2.75;;;1.80;;
49310;SDS011;35177;45.900;5.946;2023-04-24T04:39:13;3.17;;;2.10;;
49310;SDS011;35177;45.900;5.946;2023-04-24T04:41:40;2.53;;;1.67;;
49310;SDS011;35177;45.900;5.946;2023-04-24T04:44:06;3.35;;;2.40;;
49310;SDS011;35177;45.900;5.946;2023-04-24T04:46:31;3.38;;;1.88;;
49310;SDS011;35177;45.900;5.946;2023-04-24T04:49:01;2.67;;;2.00;;
49310;SDS011;35177;45.900;5.946;2023-04-24T04:51:27;4.82;;;2.38;;
49310;SDS011;35177;45.900;5.946;2023-04-24T04:53:52;4.22;;;3.05;;
49310;SDS011;35177;45.900;5.946;2023-04-24T04:56:18;8.60;;;3.35;;
49310;SDS011;35177;45.900;5.946;2023-04-24T04:58:43;7.80;;;3.95;;
49310;SDS011;35177;45.900;5.946;2023-04-24T05:01:08;5.55;;;3.70;;
49310;SDS011;35177;45.900;5.946;2023-04-24T05:03:34;8.07;;;3.80;;
49310;SDS011;35177;45.900;5.946;2023-04-24T05:05:59;6.68;;;4.90;;
49310;SDS011;35177;45.900;5.946;2023-04-24T05:08:25;6.50;;;4.70;;
49310;SDS011;35177;45.900;5.946;2023-04-24T05:10:50;5.82;;;4.43;;
49310;SDS011;35177;45.900;5.946;2023-04-24T05:13:15;12.73;;;5.20;;
49310;SDS011;35177;45.900;5.946;2023-04-24T05:15:40;7.35;;;4.78;;
49310;SDS011;35177;45.900;5.946;2023-04-24T05:18:06;6.47;;;4.28;;
49310;SDS011;35177;45.900;5.946;2023-04-24T05:20:31;6.57;;;3.80;;
49310;SDS011;35177;45.900;5.946;2023-04-24T05:22:56;7.07;;;3.47;;
49310;SDS011;35177;45.900;5.946;2023-04-24T05:25:22;3.22;;;2.92;;
49310;SDS011;35177;45.900;5.946;2023-04-24T05:27:47;4.25;;;3.10;;
49310;SDS011;35177;45.900;5.946;2023-04-24T05:30:13;4.45;;;2.38;;
49310;SDS011;35177;45.900;5.946;2023-04-24T05:32:38;2.08;;;1.45;;
49310;SDS011;35177;45.900;5.946;2023-04-24T05:35:03;2.88;;;1.70;;
49310;SDS011;35177;45.900;5.946;2023-04-24T05:37:29;2.20;;;1.20;;
49310;SDS011;35177;45.900;5.946;2023-04-24T05:39:54;1.88;;;0.93;;
49310;SDS011;35177;45.900;5.946;2023-04-24T05:42:19;2.13;;;0.90;;
49310;SDS011;35177;45.900;5.946;2023-04-24T05:44:45;1.85;;;1.13;;
49310;SDS011;35177;45.900;5.946;2023-04-24T05:47:10;2.50;;;0.75;;
49310;SDS011;35177;45.900;5.946;2023-04-24T05:49:35;0.75;;;0.60;;
49310;SDS011;35177;45.900;5.946;2023-04-24T05:52:01;0.60;;;0.60;;
49310;SDS011;35177;45.900;5.946;2023-04-24T05:54:26;0.80;;;0.40;;
49310;SDS011;35177;45.900;5.946;2023-04-24T05:56:51;0.45;;;0.45;;
49310;SDS011;35177;45.900;5.946;2023-04-24T05:59:19;0.90;;;0.35;;
49310;SDS011;35177;45.900;5.946;2023-04-24T06:01:44;1.98;;;0.60;;
49310;SDS011;35177;45.900;5.946;2023-04-24T06:04:09;1.48;;;0.70;;
49310;SDS011;35177;45.900;5.946;2023-04-24T06:06:35;0.77;;;0.50;;
49310;SDS011;35177;45.900;5.946;2023-04-24T06:09:00;1.38;;;0.60;;
49310;SDS011;35177;45.900;5.946;2023-04-24T06:11:26;0.40;;;0.40;;
49310;SDS011;35177;45.900;5.946;2023-04-24T06:13:51;1.95;;;0.60;;
49310;SDS011;35177;45.900;5.946;2023-04-24T06:16:17;2.47;;;0.40;;
49310;SDS011;35177;45.900;5.946;2023-04-24T06:18:42;0.63;;;0.40;;
49310;SDS011;35177;45.900;5.946;2023-04-24T06:21:08;0.30;;;0.30;;
49310;SDS011;35177;45.900;5.946;2023-04-24T06:23:33;1.00;;;0.60;;
49310;SDS011;35177;45.900;5.946;2023-04-24T06:25:59;0.95;;;0.52;;
49310;SDS011;35177;45.900;5.946;2023-04-24T06:28:24;1.65;;;0.55;;
49310;SDS011;35177;45.900;5.946;2023-04-24T06:30:49;3.53;;;1.90;;
49310;SDS011;35177;45.900;5.946;2023-04-24T06:33:15;4.30;;;3.20;;
49310;SDS011;35177;45.900;5.946;2023-04-24T06:35:40;3.83;;;1.85;;
49310;SDS011;35177;45.900;5.946;2023-04-24T06:38:06;3.22;;;1.70;;
49310;SDS011;35177;45.900;5.946;2023-04-24T06:40:31;2.65;;;1.30;;
49310;SDS011;35177;45.900;5.946;2023-04-24T06:42:57;2.58;;;1.10;;
49310;SDS011;35177;45.900;5.946;2023-04-24T06:45:23;2.25;;;1.40;;
49310;SDS011;35177;45.900;5.946;2023-04-24T06:47:48;1.20;;;1.05;;
49310;SDS011;35177;45.900;5.946;2023-04-24T06:50:14;1.27;;;1.00;;
49310;SDS011;35177;45.900;5.946;2023-04-24T06:52:40;10.48;;;4.32;;
49310;SDS011;35177;45.900;5.946;2023-04-24T06:55:05;3.40;;;2.00;;
49310;SDS011;35177;45.900;5.946;2023-04-24T06:57:31;3.70;;;2.05;;
49310;SDS011;35177;45.900;5.946;2023-04-24T06:59:56;3.20;;;2.05;;
49310;SDS011;35177;45.900;5.946;2023-04-24T07:02:21;3.22;;;1.77;;
49310;SDS011;35177;45.900;5.946;2023-04-24T07:04:47;1.60;;;1.05;;
49310;SDS011;35177;45.900;5.946;2023-04-24T07:07:15;0.85;;;0.73;;
49310;SDS011;35177;45.900;5.946;2023-04-24T07:09:41;0.85;;;0.85;;
49310;SDS011;35177;45.900;5.946;2023-04-24T07:12:08;3.40;;;1.20;;
49310;SDS011;35177;45.900;5.946;2023-04-24T07:14:33;3.70;;;0.80;;
49310;SDS011;35177;45.900;5.946;2023-04-24T07:16:58;1.35;;;0.70;;
49310;SDS011;35177;45.900;5.946;2023-04-24T07:19:24;4.22;;;0.80;;
49310;SDS011;35177;45.900;5.946;2023-04-24T07:21:49;0.82;;;0.70;;
49310;SDS011;35177;45.900;5.946;2023-04-24T07:24:14;1.67;;;0.73;;
49310;SDS011;35177;45.900;5.946;2023-04-24T07:26:40;4.13;;;1.98;;
49310;SDS011;35177;45.900;5.946;2023-04-24T07:29:05;1.85;;;0.85;;
49310;SDS011;35177;45.900;5.946;2023-04-24T07:31:32;1.65;;;0.80;;
49310;SDS011;35177;45.900;5.946;2023-04-24T07:33:58;1.08;;;0.60;;
49310;SDS011;35177;45.900;5.946;2023-04-24T07:36:23;2.00;;;0.95;;
49310;SDS011;35177;45.900;5.946;2023-04-24T07:38:49;1.30;;;0.75;;
49310;SDS011;35177;45.900;5.946;2023-04-24T07:41:14;2.20;;;1.00;;
49310;SDS011;35177;45.900;5.946;2023-04-24T07:43:40;2.92;;;0.85;;
49310;SDS011;35177;45.900;5.946;2023-04-24T07:46:06;2.55;;;0.80;;
49310;SDS011;35177;45.900;5.946;2023-04-24T07:48:31;3.05;;;0.80;;
49310;SDS011;35177;45.900;5.946;2023-04-24T07:50:56;0.60;;;0.60;;
49310;SDS011;35177;45.900;5.946;2023-04-24T07:53:22;1.98;;;0.80;;
49310;SDS011;35177;45.900;5.946;2023-04-24T07:55:47;1.52;;;0.80;;
49310;SDS011;35177;45.900;5.946;2023-04-24T07:58:12;0.80;;;0.70;;
49310;SDS011;35177;45.900;5.946;2023-04-24T08:00:38;1.35;;;0.75;;
49310;SDS011;35177;45.900;5.946;2023-04-24T08:03:03;2.35;;;1.00;;
49310;SDS011;35177;45.900;5.946;2023-04-24T08:05:28;1.08;;;0.75;;
49310;SDS011;35177;45.900;5.946;2023-04-24T08:07:54;0.90;;;0.60;;
49310;SDS011;35177;45.900;5.946;2023-04-24T08:10:20;2.63;;;0.80;;
49310;SDS011;35177;45.900;5.946;2023-04-24T08:12:46;1.48;;;0.65;;
49310;SDS011;35177;45.900;5.946;2023-04-24T08:15:11;1.05;;;0.77;;
49310;SDS011;35177;45.900;5.946;2023-04-24T08:17:36;2.75;;;0.90;;
49310;SDS011;35177;45.900;5.946;2023-04-24T08:20:02;1.90;;;0.80;;
49310;SDS011;35177;45.900;5.946;2023-04-24T08:22:28;1.63;;;0.80;;
49310;SDS011;35177;45.900;5.946;2023-04-24T08:24:54;0.70;;;0.70;;
49310;SDS011;35177;45.900;5.946;2023-04-24T08:27:21;2.20;;;0.85;;
49310;SDS011;35177;45.900;5.946;2023-04-24T08:29:46;1.00;;;0.93;;
49310;SDS011;35177;45.900;5.946;2023-04-24T08:32:11;3.92;;;1.02;;
49310;SDS011;35177;45.900;5.946;2023-04-24T08:34:37;3.67;;;0.75;;
49310;SDS011;35177;45.900;5.946;2023-04-24T08:37:02;2.20;;;0.90;;
49310;SDS011;35177;45.900;5.946;2023-04-24T08:39:27;1.35;;;0.85;;
49310;SDS011;35177;45.900;5.946;2023-04-24T08:41:53;2.65;;;0.80;;
49310;SDS011;35177;45.900;5.946;2023-04-24T08:44:18;1.75;;;0.80;;
49310;SDS011;35177;45.900;5.946;2023-04-24T08:46:48;2.15;;;0.90;;
49310;SDS011;35177;45.900;5.946;2023-04-24T08:49:13;2.80;;;0.90;;
49310;SDS011;35177;45.900;5.946;2023-04-24T08:51:41;1.13;;;0.80;;
49310;SDS011;35177;45.900;5.946;2023-04-24T08:54:07;3.40;;;0.95;;
49310;SDS011;35177;45.900;5.946;2023-04-24T08:56:33;1.88;;;0.75;;
49310;SDS011;35177;45.900;5.946;2023-04-24T08:58:58;1.65;;;0.80;;
49310;SDS011;35177;45.900;5.946;2023-04-24T09:01:23;1.52;;;0.90;;
49310;SDS011;35177;45.900;5.946;2023-04-24T09:03:50;1.85;;;0.90;;
49310;SDS011;35177;45.900;5.946;2023-04-24T09:06:16;1.63;;;0.93;;
49310;SDS011;35177;45.900;5.946;2023-04-24T09:08:42;1.92;;;0.88;;
49310;SDS011;35177;45.900;5.946;2023-04-24T09:11:08;4.57;;;0.90;;
49310;SDS011;35177;45.900;5.946;2023-04-24T09:13:35;2.03;;;1.25;;
49310;SDS011;35177;45.900;5.946;2023-04-24T09:16:00;2.03;;;0.88;;
49310;SDS011;35177;45.900;5.946;2023-04-24T09:18:27;2.42;;;0.80;;
49310;SDS011;35177;45.900;5.946;2023-04-24T09:21:08;3.35;;;0.88;;
49310;SDS011;35177;45.900;5.946;2023-04-24T09:23:33;2.90;;;0.70;;
49310;SDS011;35177;45.900;5.946;2023-04-24T09:26:00;3.13;;;1.00;;
49310;SDS011;35177;45.900;5.946;2023-04-24T09:28:32;1.48;;;0.82;;
49310;SDS011;35177;45.900;5.946;2023-04-24T09:31:02;4.05;;;0.98;;
49310;SDS011;35177;45.900;5.946;2023-04-24T09:33:27;1.77;;;0.90;;
49310;SDS011;35177;45.900;5.946;2023-04-24T09:35:53;2.70;;;0.70;;
49310;SDS011;35177;45.900;5.946;2023-04-24T09:38:18;1.65;;;0.90;;
49310;SDS011;35177;45.900;5.946;2023-04-24T09:40:45;1.40;;;0.80;;
49310;SDS011;35177;45.900;5.946;2023-04-24T09:43:11;2.75;;;0.70;;
49310;SDS011;35177;45.900;5.946;2023-04-24T09:45:39;1.27;;;0.68;;
49310;SDS011;35177;45.900;5.946;2023-04-24T09:48:05;2.05;;;0.98;;
49310;SDS011;35177;45.900;5.946;2023-04-24T09:50:31;1.70;;;0.82;;
49310;SDS011;35177;45.900;5.946;2023-04-24T09:52:58;1.67;;;0.82;;
49310;SDS011;35177;45.900;5.946;2023-04-24T09:55:25;1.10;;;0.75;;
49310;SDS011;35177;45.900;5.946;2023-04-24T09:57:51;2.13;;;0.70;;
49310;SDS011;35177;45.900;5.946;2023-04-24T10:00:18;2.22;;;0.80;;
49310;SDS011;35177;45.900;5.946;2023-04-24T10:02:44;3.00;;;0.73;;
49310;SDS011;35177;45.900;5.946;2023-04-24T10:05:10;1.13;;;0.63;;
49310;SDS011;35177;45.900;5.946;2023-04-24T10:07:37;1.30;;;0.73;;
49310;SDS011;35177;45.900;5.946;2023-04-24T10:10:02;3.05;;;0.80;;
49310;SDS011;35177;45.900;5.946;2023-04-24T10:12:28;2.20;;;0.70;;
49310;SDS011;35177;45.900;5.946;2023-04-24T10:14:54;4.60;;;0.93;;
49310;SDS011;35177;45.900;5.946;2023-04-24T10:17:20;1.65;;;0.60;;
49310;SDS011;35177;45.900;5.946;2023-04-24T10:19:46;2.20;;;0.70;;
49310;SDS011;35177;45.900;5.946;2023-04-24T10:22:12;2.65;;;0.70;;
49310;SDS011;35177;45.900;5.946;2023-04-24T10:24:37;1.52;;;0.80;;
49310;SDS011;35177;45.900;5.946;2023-04-24T10:27:03;2.00;;;0.90;;
49310;SDS011;35177;45.900;5.946;2023-04-24T10:29:30;1.98;;;0.68;;
49310;SDS011;35177;45.900;5.946;2023-04-24T10:31:56;1.52;;;0.90;;
49310;SDS011;35177;45.900;5.946;2023-04-24T10:34:21;3.58;;;0.80;;
49310;SDS011;35177;45.900;5.946;2023-04-24T10:36:48;0.82;;;0.60;;
49310;SDS011;35177;45.900;5.946;2023-04-24T10:39:15;1.48;;;0.68;;
49310;SDS011;35177;45.900;5.946;2023-04-24T10:41:41;1.33;;;0.80;;
49310;SDS011;35177;45.900;5.946;2023-04-24T10:44:14;1.05;;;0.70;;
49310;SDS011;35177;45.900;5.946;2023-04-24T10:46:42;1.77;;;0.82;;
49310;SDS011;35177;45.900;5.946;2023-04-24T10:49:08;3.10;;;0.70;;
49310;SDS011;35177;45.900;5.946;2023-04-24T10:51:52;3.15;;;0.75;;
49310;SDS011;35177;45.900;5.946;2023-04-24T10:54:24;3.40;;;1.65;;
49310;SDS011;35177;45.900;5.946;2023-04-24T10:56:50;2.50;;;1.30;;
49310;SDS011;35177;45.900;5.946;2023-04-24T10:59:23;1.85;;;0.90;;
49310;SDS011;35177;45.900;5.946;2023-04-24T11:01:52;1.73;;;1.05;;
49310;SDS011;35177;45.900;5.946;2023-04-24T11:04:21;2.47;;;1.23;;
49310;SDS011;35177;45.900;5.946;2023-04-24T11:06:53;6.15;;;1.40;;
49310;SDS011;35177;45.900;5.946;2023-04-24T11:09:19;2.92;;;1.13;;
49310;SDS011;35177;45.900;5.946;2023-04-24T11:11:46;1.50;;;0.75;;
49310;SDS011;35177;45.900;5.946;2023-04-24T11:14:14;1.20;;;0.65;;
49310;SDS011;35177;45.900;5.946;2023-04-24T11:16:52;3.63;;;0.65;;
49310;SDS011;35177;45.900;5.946;2023-04-24T11:19:20;7.70;;;2.95;;
49310;SDS011;35177;45.900;5.946;2023-04-24T11:21:49;1.90;;;1.30;;
49310;SDS011;35177;45.900;5.946;2023-04-24T11:24:25;1.27;;;0.95;;
49310;SDS011;35177;45.900;5.946;2023-04-24T11:26:55;1.30;;;0.73;;
49310;SDS011;35177;45.900;5.946;2023-04-24T11:29:21;2.13;;;0.73;;
49310;SDS011;35177;45.900;5.946;2023-04-24T11:31:47;4.13;;;1.60;;
49310;SDS011;35177;45.900;5.946;2023-04-24T11:34:16;1.25;;;0.70;;
49310;SDS011;35177;45.900;5.946;2023-04-24T11:36:42;3.55;;;1.50;;
49310;SDS011;35177;45.900;5.946;2023-04-24T11:39:08;1.13;;;0.63;;
49310;SDS011;35177;45.900;5.946;2023-04-24T11:41:34;2.33;;;1.30;;
49310;SDS011;35177;45.900;5.946;2023-04-24T11:44:00;3.67;;;1.65;;
49310;SDS011;35177;45.900;5.946;2023-04-24T11:46:29;4.85;;;0.90;;
49310;SDS011;35177;45.900;5.946;2023-04-24T11:48:56;1.15;;;1.00;;
49310;SDS011;35177;45.900;5.946;2023-04-24T11:51:22;2.72;;;1.55;;
49310;SDS011;35177;45.900;5.946;2023-04-24T11:53:49;1.63;;;0.90;;
49310;SDS011;35177;45.900;5.946;2023-04-24T11:56:17;0.90;;;0.80;;
49310;SDS011;35177;45.900;5.946;2023-04-24T11:58:43;3.35;;;1.55;;
49310;SDS011;35177;45.900;5.946;2023-04-24T12:01:09;5.90;;;2.00;;
49310;SDS011;35177;45.900;5.946;2023-04-24T12:03:34;0.52;;;0.50;;
49310;SDS011;35177;45.900;5.946;2023-04-24T12:06:06;1.45;;;1.33;;
49310;SDS011;35177;45.900;5.946;2023-04-24T12:08:35;1.02;;;0.90;;
49310;SDS011;35177;45.900;5.946;2023-04-24T12:11:01;0.95;;;0.65;;
49310;SDS011;35177;45.900;5.946;2023-04-24T12:13:28;1.02;;;0.68;;
49310;SDS011;35177;45.900;5.946;2023-04-24T12:15:54;0.93;;;0.60;;
49310;SDS011;35177;45.900;5.946;2023-04-24T12:18:23;1.50;;;0.80;;
49310;SDS011;35177;45.900;5.946;2023-04-24T12:20:48;1.83;;;0.73;;
49310;SDS011;35177;45.900;5.946;2023-04-24T12:23:14;2.30;;;0.98;;
49310;SDS011;35177;45.900;5.946;2023-04-24T12:25:39;2.70;;;0.68;;
49310;SDS011;35177;45.900;5.946;2023-04-24T12:30:32;0.95;;;0.80;;
49310;SDS011;35177;45.900;5.946;2023-04-24T12:32:57;2.00;;;1.00;;
49310;SDS011;35177;45.900;5.946;2023-04-24T12:35:23;2.58;;;1.23;;
49310;SDS011;35177;45.900;5.946;2023-04-24T12:37:49;3.30;;;0.82;;
49310;SDS011;35177;45.900;5.946;2023-04-24T12:40:16;8.27;;;1.00;;
49310;SDS011;35177;45.900;5.946;2023-04-24T12:42:42;2.50;;;0.77;;
49310;SDS011;35177;45.900;5.946;2023-04-24T12:45:08;0.80;;;0.52;;
49310;SDS011;35177;45.900;5.946;2023-04-24T12:47:33;1.90;;;0.75;;
49310;SDS011;35177;45.900;5.946;2023-04-24T12:49:59;2.45;;;0.80;;
49310;SDS011;35177;45.900;5.946;2023-04-24T12:52:25;5.15;;;1.60;;
49310;SDS011;35177;45.900;5.946;2023-04-24T12:54:54;3.63;;;1.55;;
49310;SDS011;35177;45.900;5.946;2023-04-24T12:57:20;3.10;;;1.30;;
49310;SDS011;35177;45.900;5.946;2023-04-24T12:59:45;2.35;;;0.90;;
49310;SDS011;35177;45.900;5.946;2023-04-24T13:02:11;14.25;;;6.75;;
49310;SDS011;35177;45.900;5.946;2023-04-24T13:04:36;2.30;;;0.90;;
49310;SDS011;35177;45.900;5.946;2023-04-24T13:07:01;1.77;;;0.57;;
49310;SDS011;35177;45.900;5.946;2023-04-24T13:09:27;1.40;;;0.70;;
49310;SDS011;35177;45.900;5.946;2023-04-24T13:11:52;1.00;;;0.70;;
49310;SDS011;35177;45.900;5.946;2023-04-24T13:14:22;2.83;;;1.75;;
49310;SDS011;35177;45.900;5.946;2023-04-24T13:16:47;1.42;;;0.75;;
49310;SDS011;35177;45.900;5.946;2023-04-24T13:19:13;1.73;;;0.70;;
49310;SDS011;35177;45.900;5.946;2023-04-24T13:21:38;1.98;;;0.63;;
49310;SDS011;35177;45.900;5.946;2023-04-24T13:24:04;1.35;;;0.80;;
49310;SDS011;35177;45.900;5.946;2023-04-24T13:26:30;2.15;;;0.63;;
49310;SDS011;35177;45.900;5.946;2023-04-24T13:28:55;1.35;;;0.80;;
49310;SDS011;35177;45.900;5.946;2023-04-24T13:31:20;1.60;;;0.80;;
49310;SDS011;35177;45.900;5.946;2023-04-24T13:33:46;1.67;;;0.90;;
49310;SDS011;35177;45.900;5.946;2023-04-24T13:36:11;2.60;;;0.65;;
49310;SDS011;35177;45.900;5.946;2023-04-24T13:38:37;0.82;;;0.77;;
49310;SDS011;35177;45.900;5.946;2023-04-24T13:41:02;1.75;;;0.60;;
49310;SDS011;35177;45.900;5.946;2023-04-24T13:43:28;2.40;;;1.27;;
49310;SDS011;35177;45.900;5.946;2023-04-24T13:45:53;1.23;;;0.90;;
49310;SDS011;35177;45.900;5.946;2023-04-24T13:48:19;1.42;;;0.90;;
49310;SDS011;35177;45.900;5.946;2023-04-24T13:50:45;1.67;;;0.70;;
49310;SDS011;35177;45.900;5.946;2023-04-24T13:53:13;2.08;;;0.70;;
49310;SDS011;35177;45.900;5.946;2023-04-24T13:55:38;0.52;;;0.52;;
49310;SDS011;35177;45.900;5.946;2023-04-24T13:58:04;2.47;;;0.60;;
49310;SDS011;35177;45.900;5.946;2023-04-24T14:00:30;3.00;;;1.30;;
49310;SDS011;35177;45.900;5.946;2023-04-24T14:02:56;0.93;;;0.80;;
49310;SDS011;35177;45.900;5.946;2023-04-24T14:05:21;0.82;;;0.60;;
49310;SDS011;35177;45.900;5.946;2023-04-24T14:07:47;1.35;;;0.70;;
49310;SDS011;35177;45.900;5.946;2023-04-24T14:10:12;2.45;;;1.30;;
49310;SDS011;35177;45.900;5.946;2023-04-24T14:12:37;2.67;;;0.80;;
49310;SDS011;35177;45.900;5.946;2023-04-24T14:15:03;1.55;;;0.82;;
49310;SDS011;35177;45.900;5.946;2023-04-24T14:17:29;1.58;;;0.75;;
49310;SDS011;35177;45.900;5.946;2023-04-24T14:19:57;0.98;;;0.70;;
49310;SDS011;35177;45.900;5.946;2023-04-24T14:22:25;1.15;;;0.73;;
49310;SDS011;35177;45.900;5.946;2023-04-24T14:24:50;2.25;;;0.68;;
49310;SDS011;35177;45.900;5.946;2023-04-24T14:27:15;1.60;;;0.90;;
49310;SDS011;35177;45.900;5.946;2023-04-24T14:29:40;1.80;;;0.85;;
49310;SDS011;35177;45.900;5.946;2023-04-24T14:32:06;0.88;;;0.88;;
49310;SDS011;35177;45.900;5.946;2023-04-24T14:34:31;1.45;;;0.73;;
49310;SDS011;35177;45.900;5.946;2023-04-24T14:36:57;0.98;;;0.60;;
49310;SDS011;35177;45.900;5.946;2023-04-24T14:39:23;1.80;;;0.60;;
49310;SDS011;35177;45.900;5.946;2023-04-24T14:41:50;1.65;;;0.80;;